Time;durP1;ratioP1;P1;durP2;ratioP2;P2;SDS_P1;SDS_P2;PMS_P1;PMS_P2;Temp;Humidity;BMP_temperature;BMP_pressure;BME280_temperature;BME280_humidity;BME280_pressure;Samples;Min_cycle;Max_cycle;Signal;HPM_P1;HPM_P2
2021/06/04 00:02:05;;;;;;;24.10;15.68;;;;;;;;;;5018440;28;20026;-68
2021/06/04 00:04:31;;;;;;;24.40;16.15;;;;;;;;;;5023472;28;20075;-67
2021/06/04 00:06:57;;;;;;;23.13;16.50;;;;;;;;;;5012835;28;20026;-68
2021/06/04 00:09:23;;;;;;;24.38;15.63;;;;;;;;;;5011386;28;20033;-68
2021/06/04 00:11:50;;;;;;;24.48;16.15;;;;;;;;;;5010879;28;20036;-69
2021/06/04 00:14:19;;;;;;;21.75;15.57;;;;;;;;;;5011223;28;20089;-68
2021/06/04 00:16:48;;;;;;;23.17;16.25;;;;;;;;;;5010652;28;20399;-68
2021/06/04 00:19:16;;;;;;;26.42;16.52;;;;;;;;;;5011768;28;20499;-69
2021/06/04 00:21:44;;;;;;;26.60;17.30;;;;;;;;;;5020991;28;20025;-68
2021/06/04 00:24:10;;;;;;;25.52;17.10;;;;;;;;;;5005546;28;20032;-68
2021/06/04 00:26:38;;;;;;;27.77;17.55;;;;;;;;;;5009421;28;20529;-68
2021/06/04 00:29:04;;;;;;;27.25;17.30;;;;;;;;;;5019641;28;20017;-71
2021/06/04 00:31:30;;;;;;;25.27;17.48;;;;;;;;;;5010427;28;20435;-71
2021/06/04 00:33:57;;;;;;;26.52;17.77;;;;;;;;;;5018284;28;20021;-71
2021/06/04 00:36:24;;;;;;;29.85;19.58;;;;;;;;;;5010993;28;20029;-69
2021/06/04 00:38:50;;;;;;;30.30;18.60;;;;;;;;;;5009070;28;20462;-70
2021/06/04 00:41:18;;;;;;;30.73;19.42;;;;;;;;;;5008543;28;20562;-70
2021/06/04 00:43:45;;;;;;;29.15;18.63;;;;;;;;;;5004632;28;20033;-70
2021/06/04 00:46:11;;;;;;;29.65;20.55;;;;;;;;;;5023054;28;20032;-70
2021/06/04 00:48:37;;;;;;;24.98;17.95;;;;;;;;;;5020162;28;20026;-70
2021/06/04 00:51:06;;;;;;;29.00;19.80;;;;;;;;;;5010540;28;20383;-70
2021/06/04 00:53:33;;;;;;;29.30;18.40;;;;;;;;;;5010258;28;20398;-69
2021/06/04 00:55:59;;;;;;;29.98;19.38;;;;;;;;;;5010218;28;20034;-70
2021/06/04 00:58:33;;;;;;;29.33;19.52;;;;;;;;;;5007278;28;20529;-70
2021/06/04 01:00:59;;;;;;;25.55;18.17;;;;;;;;;;5010479;28;20422;-70
2021/06/04 01:03:26;;;;;;;28.60;19.05;;;;;;;;;;5009268;28;20483;-70
2021/06/04 01:05:55;;;;;;;30.98;18.58;;;;;;;;;;5020859;28;20025;-70
2021/06/04 01:08:40;;;;;;;29.02;18.50;;;;;;;;;;5009806;28;20080;-71
2021/06/04 01:11:06;;;;;;;29.90;17.70;;;;;;;;;;5004110;28;20026;-70
2021/06/04 01:13:38;;;;;;;33.53;20.77;;;;;;;;;;5010331;28;20044;-70
2021/06/04 01:16:10;;;;;;;30.80;20.00;;;;;;;;;;5014878;28;20117;-70
2021/06/04 01:18:42;;;;;;;26.92;18.92;;;;;;;;;;5010529;28;20113;-70
2021/06/04 01:21:11;;;;;;;32.90;19.63;;;;;;;;;;5009988;28;20018;-70
2021/06/04 01:23:52;;;;;;;28.63;19.08;;;;;;;;;;5010226;28;20352;-70
2021/06/04 01:26:25;;;;;;;32.90;20.42;;;;;;;;;;5009457;28;20394;-70
2021/06/04 01:29:10;;;;;;;30.83;19.55;;;;;;;;;;5017681;28;20017;-70
2021/06/04 01:31:39;;;;;;;27.27;18.83;;;;;;;;;;5011508;28;20033;-70
2021/06/04 01:34:14;;;;;;;34.60;20.92;;;;;;;;;;5009956;28;20445;-70
2021/06/04 01:36:46;;;;;;;32.22;22.80;;;;;;;;;;5009828;28;20521;-70
2021/06/04 01:39:17;;;;;;;33.45;21.65;;;;;;;;;;5010138;28;20025;-70
2021/06/04 01:41:45;;;;;;;30.23;20.98;;;;;;;;;;5025703;28;20112;-70
2021/06/04 01:44:16;;;;;;;32.95;21.90;;;;;;;;;;5006445;28;20119;-70
2021/06/04 01:46:43;;;;;;;33.63;21.40;;;;;;;;;;5025494;28;20026;-70
2021/06/04 01:49:11;;;;;;;35.10;21.02;;;;;;;;;;5014482;28;20026;-69
2021/06/04 01:51:39;;;;;;;34.80;21.95;;;;;;;;;;5013286;28;20037;-69
2021/06/04 01:54:16;;;;;;;35.05;21.85;;;;;;;;;;5011903;28;20065;-69
2021/06/04 01:56:45;;;;;;;34.80;23.35;;;;;;;;;;5013090;28;20068;-69
2021/06/04 01:59:17;;;;;;;34.83;22.40;;;;;;;;;;5018042;28;20053;-70
2021/06/04 02:01:46;;;;;;;35.45;22.52;;;;;;;;;;5016176;28;20041;-69
2021/06/04 02:04:17;;;;;;;37.45;21.15;;;;;;;;;;5013214;28;20407;-69
2021/06/04 02:06:44;;;;;;;36.97;22.15;;;;;;;;;;5011388;28;20040;-69
2021/06/04 02:09:12;;;;;;;32.97;22.42;;;;;;;;;;5011979;28;20029;-69
2021/06/04 02:11:38;;;;;;;32.00;23.55;;;;;;;;;;5020687;28;20399;-69
2021/06/04 02:14:07;;;;;;;38.35;24.42;;;;;;;;;;5016997;28;20033;-69
2021/06/04 02:16:44;;;;;;;33.47;22.83;;;;;;;;;;5019475;28;20034;-69
2021/06/04 02:19:17;;;;;;;34.90;23.20;;;;;;;;;;5006463;28;20014;-69
2021/06/04 02:22:10;;;;;;;36.08;24.88;;;;;;;;;;5011803;28;20045;-69
2021/06/04 02:24:40;;;;;;;39.92;25.15;;;;;;;;;;4996786;28;20033;-69
2021/06/04 02:27:10;;;;;;;47.08;27.42;;;;;;;;;;5013103;28;20029;-69
2021/06/04 02:29:52;;;;;;;41.35;25.60;;;;;;;;;;5019812;28;20032;-69
2021/06/04 02:32:21;;;;;;;40.65;26.42;;;;;;;;;;5011451;28;20044;-69
2021/06/04 02:34:49;;;;;;;44.83;27.65;;;;;;;;;;5022393;28;20443;-69
2021/06/04 02:37:20;;;;;;;44.60;28.55;;;;;;;;;;5009579;28;20117;-69
2021/06/04 02:39:54;;;;;;;43.40;28.58;;;;;;;;;;5007027;28;20022;-69
2021/06/04 02:42:25;;;;;;;45.58;29.45;;;;;;;;;;5019060;28;20026;-69
2021/06/04 02:44:53;;;;;;;47.35;29.95;;;;;;;;;;5018073;28;20022;-69
2021/06/04 02:47:22;;;;;;;48.25;30.98;;;;;;;;;;5012546;28;20034;-69
2021/06/04 02:49:48;;;;;;;53.92;32.50;;;;;;;;;;5010590;28;20033;-69
2021/06/04 02:52:25;;;;;;;55.42;31.50;;;;;;;;;;5018906;28;20047;-69
2021/06/04 02:54:51;;;;;;;49.80;31.23;;;;;;;;;;5010145;28;20021;-69
2021/06/04 02:57:18;;;;;;;48.53;31.30;;;;;;;;;;5012270;28;20053;-68
2021/06/04 02:59:46;;;;;;;51.45;31.02;;;;;;;;;;5018127;28;20030;-68
2021/06/04 03:02:14;;;;;;;50.17;31.17;;;;;;;;;;5012753;28;20522;-68
2021/06/04 03:04:43;;;;;;;47.65;30.20;;;;;;;;;;5011426;28;20034;-68
2021/06/04 03:07:12;;;;;;;53.22;32.47;;;;;;;;;;5011993;28;20416;-68
2021/06/04 03:09:39;;;;;;;53.97;32.42;;;;;;;;;;5020508;28;20090;-68
2021/06/04 03:12:14;;;;;;;52.40;32.25;;;;;;;;;;5012049;28;20022;-68
2021/06/04 03:14:40;;;;;;;52.25;32.25;;;;;;;;;;5016620;28;20034;-68
2021/06/04 03:17:08;;;;;;;51.60;31.08;;;;;;;;;;5011628;28;20022;-68
2021/06/04 03:19:34;;;;;;;52.78;32.00;;;;;;;;;;5011758;28;20076;-68
2021/06/04 03:22:01;;;;;;;57.10;32.33;;;;;;;;;;5011208;28;20026;-69
2021/06/04 03:24:30;;;;;;;52.08;31.25;;;;;;;;;;5018252;28;20372;-69
2021/06/04 03:26:56;;;;;;;46.83;31.15;;;;;;;;;;5014547;28;20053;-69
2021/06/04 03:29:22;;;;;;;51.25;33.42;;;;;;;;;;5021186;28;20118;-68
2021/06/04 03:31:50;;;;;;;48.50;32.08;;;;;;;;;;5014509;28;20510;-68
2021/06/04 03:34:17;;;;;;;50.85;33.15;;;;;;;;;;5011246;28;20037;-68
2021/06/04 03:36:44;;;;;;;48.67;32.28;;;;;;;;;;5010284;28;20036;-68
2021/06/04 03:39:15;;;;;;;52.60;33.78;;;;;;;;;;5025035;28;20026;-68
2021/06/04 03:41:41;;;;;;;54.67;33.90;;;;;;;;;;5013000;28;20117;-68
2021/06/04 03:44:09;;;;;;;52.22;34.53;;;;;;;;;;5010491;28;20871;-68
2021/06/04 03:46:35;;;;;;;53.90;33.22;;;;;;;;;;5011237;28;20488;-68
2021/06/04 03:49:02;;;;;;;47.38;31.10;;;;;;;;;;5010909;28;20103;-68
2021/06/04 03:51:30;;;;;;;53.58;31.88;;;;;;;;;;5011043;28;20104;-68
2021/06/04 03:53:56;;;;;;;59.05;33.10;;;;;;;;;;5011694;28;20084;-68
2021/06/04 03:56:22;;;;;;;44.33;30.80;;;;;;;;;;5010592;28;20468;-68
2021/06/04 03:58:49;;;;;;;46.75;29.67;;;;;;;;;;5021694;28;20419;-68
2021/06/04 04:01:17;;;;;;;52.42;31.25;;;;;;;;;;5012157;28;20024;-68
2021/06/04 04:03:43;;;;;;;45.60;30.50;;;;;;;;;;5003122;28;20026;-68
2021/06/04 04:06:09;;;;;;;45.97;29.23;;;;;;;;;;5010093;28;20018;-68
2021/06/04 04:08:35;;;;;;;52.75;31.20;;;;;;;;;;5010480;28;20076;-68
2021/06/04 04:11:01;;;;;;;44.47;29.63;;;;;;;;;;5010454;28;20030;-68
2021/06/04 04:13:28;;;;;;;48.22;29.60;;;;;;;;;;5010547;28;20057;-68
2021/06/04 04:15:55;;;;;;;44.67;28.00;;;;;;;;;;5022579;28;20029;-68
2021/06/04 04:18:21;;;;;;;45.90;28.20;;;;;;;;;;5007253;28;20085;-68
2021/06/04 04:20:58;;;;;;;40.35;27.73;;;;;;;;;;5009932;28;20038;-68
2021/06/04 04:23:26;;;;;;;48.35;28.55;;;;;;;;;;5018674;28;20030;-68
2021/06/04 04:25:52;;;;;;;47.60;29.50;;;;;;;;;;5013107;28;20101;-68
2021/06/04 04:28:20;;;;;;;45.08;27.25;;;;;;;;;;5014995;28;20558;-68
2021/06/04 04:30:46;;;;;;;44.80;27.95;;;;;;;;;;5010471;28;20092;-68
2021/06/04 04:33:13;;;;;;;50.78;28.92;;;;;;;;;;5010189;28;20025;-68
2021/06/04 04:35:40;;;;;;;49.83;29.77;;;;;;;;;;5012999;28;20463;-68
2021/06/04 04:38:07;;;;;;;48.40;28.00;;;;;;;;;;5010638;28;20026;-68
2021/06/04 04:40:35;;;;;;;48.75;27.95;;;;;;;;;;5015249;28;20399;-68
2021/06/04 04:43:01;;;;;;;50.35;28.05;;;;;;;;;;5014689;28;20024;-68
2021/06/04 04:45:28;;;;;;;44.17;27.17;;;;;;;;;;5021475;28;20092;-68
2021/06/04 04:47:54;;;;;;;44.85;28.15;;;;;;;;;;5023881;28;20022;-68
2021/06/04 04:50:21;;;;;;;42.72;28.38;;;;;;;;;;5010319;28;20053;-68
2021/06/04 04:52:47;;;;;;;48.70;29.17;;;;;;;;;;5015891;28;20029;-68
2021/06/04 04:55:14;;;;;;;43.42;27.90;;;;;;;;;;5014252;28;20053;-68
2021/06/04 04:57:39;;;;;;;46.65;27.83;;;;;;;;;;5009818;28;20022;-68
2021/06/04 05:00:08;;;;;;;43.00;27.52;;;;;;;;;;5015346;28;20467;-68
2021/06/04 05:02:34;;;;;;;41.00;24.48;;;;;;;;;;5014678;28;20018;-68
2021/06/04 05:04:59;;;;;;;38.55;24.02;;;;;;;;;;5008676;28;20026;-68
2021/06/04 05:07:25;;;;;;;40.50;25.13;;;;;;;;;;5008791;28;20045;-68
2021/06/04 05:09:51;;;;;;;43.25;25.25;;;;;;;;;;5016434;28;20552;-68
2021/06/04 05:12:18;;;;;;;40.25;24.23;;;;;;;;;;5010097;28;20026;-68
2021/06/04 05:14:44;;;;;;;40.47;24.88;;;;;;;;;;5009545;28;20026;-68
2021/06/04 05:17:10;;;;;;;38.30;23.70;;;;;;;;;;5010140;28;20080;-68
2021/06/04 05:19:38;;;;;;;36.90;24.20;;;;;;;;;;5014713;28;20026;-68
2021/06/04 05:22:04;;;;;;;38.83;24.33;;;;;;;;;;5022063;28;20013;-68
2021/06/04 05:24:30;;;;;;;42.70;25.77;;;;;;;;;;5002564;28;20520;-68
2021/06/04 05:26:56;;;;;;;35.78;22.58;;;;;;;;;;5014699;28;20026;-68
2021/06/04 05:29:22;;;;;;;34.40;23.00;;;;;;;;;;4997684;28;20053;-68
2021/06/04 05:31:48;;;;;;;33.97;23.08;;;;;;;;;;5000291;28;20056;-68
2021/06/04 05:34:14;;;;;;;32.75;22.20;;;;;;;;;;4997365;28;20452;-68
2021/06/04 05:36:40;;;;;;;32.60;21.83;;;;;;;;;;4999692;28;20010;-68
2021/06/04 05:39:08;;;;;;;36.72;22.73;;;;;;;;;;5002389;28;20029;-68
2021/06/04 05:41:35;;;;;;;33.97;22.98;;;;;;;;;;5018669;28;20030;-68
2021/06/04 05:44:01;;;;;;;35.75;21.83;;;;;;;;;;5016829;28;20037;-68
2021/06/04 05:46:27;;;;;;;35.60;22.75;;;;;;;;;;5011930;28;20030;-68
2021/06/04 05:48:53;;;;;;;30.50;21.70;;;;;;;;;;5010464;28;20025;-68
2021/06/04 05:51:21;;;;;;;32.00;22.58;;;;;;;;;;5020687;28;20034;-68
2021/06/04 05:53:47;;;;;;;33.40;22.45;;;;;;;;;;5007291;28;20031;-68
2021/06/04 05:56:14;;;;;;;32.05;22.33;;;;;;;;;;4999623;28;20025;-68
2021/06/04 05:58:42;;;;;;;31.58;20.83;;;;;;;;;;5004982;28;20361;-68
2021/06/04 06:01:09;;;;;;;32.95;21.38;;;;;;;;;;5001746;28;20022;-68
2021/06/04 06:03:35;;;;;;;32.75;22.35;;;;;;;;;;5000831;28;20519;-67
2021/06/04 06:06:01;;;;;;;33.90;20.90;;;;;;;;;;5012052;28;20373;-67
2021/06/04 06:08:28;;;;;;;39.03;23.75;;;;;;;;;;5000908;28;20135;-67
2021/06/04 06:10:54;;;;;;;35.10;22.95;;;;;;;;;;5015601;28;20529;-67
2021/06/04 06:13:20;;;;;;;30.85;20.17;;;;;;;;;;5005754;28;20045;-64
2021/06/04 06:15:46;;;;;;;28.35;20.45;;;;;;;;;;5003271;28;20037;-66
2021/06/04 06:18:13;;;;;;;28.38;19.85;;;;;;;;;;5021072;28;20104;-66
2021/06/04 06:20:40;;;;;;;31.50;19.98;;;;;;;;;;5003561;28;20027;-66
2021/06/04 06:23:06;;;;;;;28.58;18.25;;;;;;;;;;5006262;28;20161;-66
2021/06/04 06:25:34;;;;;;;26.23;16.95;;;;;;;;;;5003352;28;20030;-66
2021/06/04 06:28:00;;;;;;;27.13;16.80;;;;;;;;;;5005415;28;20057;-66
2021/06/04 06:30:28;;;;;;;20.90;14.40;;;;;;;;;;5007859;28;20029;-66
2021/06/04 06:32:54;;;;;;;24.10;15.93;;;;;;;;;;5006535;28;20029;-67
2021/06/04 06:35:23;;;;;;;23.58;14.05;;;;;;;;;;5014107;28;20037;-68
2021/06/04 06:37:49;;;;;;;21.52;14.63;;;;;;;;;;4999801;28;20034;-67
2021/06/04 06:40:15;;;;;;;17.48;12.52;;;;;;;;;;5013216;28;20026;-68
2021/06/04 06:42:41;;;;;;;17.58;11.05;;;;;;;;;;5005724;28;20080;-68
2021/06/04 06:45:09;;;;;;;13.43;8.35;;;;;;;;;;5010204;28;20026;-68
2021/06/04 06:47:36;;;;;;;17.48;10.70;;;;;;;;;;5005984;28;20041;-68
2021/06/04 06:50:02;;;;;;;16.80;11.98;;;;;;;;;;5002636;28;20085;-68
2021/06/04 06:52:30;;;;;;;14.90;10.80;;;;;;;;;;4999013;28;21327;-69
2021/06/04 06:54:56;;;;;;;13.82;10.25;;;;;;;;;;5000339;28;20112;-68
2021/06/04 06:57:23;;;;;;;15.95;10.73;;;;;;;;;;5012327;28;20033;-69
2021/06/04 06:59:49;;;;;;;14.05;11.82;;;;;;;;;;5009124;28;20046;-69
2021/06/04 07:02:18;;;;;;;18.25;11.73;;;;;;;;;;5001828;28;20072;-69
2021/06/04 07:04:43;;;;;;;14.07;11.30;;;;;;;;;;5004089;28;20471;-68
2021/06/04 07:07:10;;;;;;;12.88;10.27;;;;;;;;;;5010591;28;20107;-68
2021/06/04 07:09:36;;;;;;;12.63;8.23;;;;;;;;;;5008375;28;20076;-68
2021/06/04 07:12:02;;;;;;;14.45;9.13;;;;;;;;;;5016354;28;20025;-68
2021/06/04 07:14:30;;;;;;;14.23;9.90;;;;;;;;;;5013425;28;20030;-68
2021/06/04 07:16:56;;;;;;;14.90;10.15;;;;;;;;;;5011626;28;20029;-68
2021/06/04 07:19:22;;;;;;;13.27;8.65;;;;;;;;;;5013495;28;20021;-69
2021/06/04 07:21:48;;;;;;;11.50;8.60;;;;;;;;;;5026128;28;20486;-68
2021/06/04 07:24:14;;;;;;;11.60;8.10;;;;;;;;;;5016892;28;20026;-68
2021/06/04 07:26:52;;;;;;;13.10;8.75;;;;;;;;;;4999165;28;20033;-68
2021/06/04 07:29:22;;;;;;;12.48;8.55;;;;;;;;;;4995417;28;20030;-68
2021/06/04 07:31:51;;;;;;;10.20;6.85;;;;;;;;;;4998699;28;20413;-69
2021/06/04 07:34:21;;;;;;;10.65;5.82;;;;;;;;;;5001153;28;20084;-69
2021/06/04 07:36:48;;;;;;;11.00;6.22;;;;;;;;;;4997408;28;20022;-68
2021/06/04 07:39:16;;;;;;;9.10;5.90;;;;;;;;;;4994530;28;20018;-68
2021/06/04 07:41:43;;;;;;;8.98;6.20;;;;;;;;;;4995653;28;20032;-68
2021/06/04 07:44:12;;;;;;;10.35;7.53;;;;;;;;;;4997267;28;20022;-68
2021/06/04 07:46:39;;;;;;;13.20;7.65;;;;;;;;;;5017790;28;20172;-68
2021/06/04 07:49:05;;;;;;;12.85;7.18;;;;;;;;;;5006584;28;20104;-67
2021/06/04 07:51:33;;;;;;;11.45;7.90;;;;;;;;;;5013782;28;20081;-69
2021/06/04 07:54:00;;;;;;;11.10;7.93;;;;;;;;;;5011864;28;20129;-68
2021/06/04 07:56:27;;;;;;;8.77;6.65;;;;;;;;;;5001829;28;20026;-68
2021/06/04 07:58:53;;;;;;;9.52;6.28;;;;;;;;;;5015713;28;20022;-69
2021/06/04 08:01:19;;;;;;;9.63;6.10;;;;;;;;;;4998161;28;20061;-69
2021/06/04 08:03:46;;;;;;;9.45;6.28;;;;;;;;;;5003492;28;20026;-69
2021/06/04 08:06:13;;;;;;;10.75;7.03;;;;;;;;;;5002579;28;20490;-69
2021/06/04 08:08:39;;;;;;;10.90;7.03;;;;;;;;;;4997975;28;20430;-71
2021/06/04 08:11:07;;;;;;;9.38;7.20;;;;;;;;;;5005313;28;20036;-70
2021/06/04 08:13:33;;;;;;;12.30;7.50;;;;;;;;;;5009158;28;20654;-70
2021/06/04 08:16:02;;;;;;;10.05;7.63;;;;;;;;;;5002612;28;20023;-71
2021/06/04 08:18:31;;;;;;;12.10;6.93;;;;;;;;;;5003130;28;20430;-70
2021/06/04 08:20:57;;;;;;;12.88;9.15;;;;;;;;;;4997442;28;20022;-70
2021/06/04 08:23:34;;;;;;;11.50;8.35;;;;;;;;;;5003636;28;20030;-71
2021/06/04 08:26:00;;;;;;;11.05;9.25;;;;;;;;;;5004337;28;20058;-70
2021/06/04 08:28:28;;;;;;;11.07;8.00;;;;;;;;;;4998595;28;20045;-70
2021/06/04 08:30:54;;;;;;;10.68;8.27;;;;;;;;;;4998924;28;20077;-70
2021/06/04 08:33:23;;;;;;;17.08;8.88;;;;;;;;;;5015979;28;20046;-71
2021/06/04 08:35:50;;;;;;;13.07;8.55;;;;;;;;;;5001014;28;20029;-69
2021/06/04 08:38:16;;;;;;;12.75;9.60;;;;;;;;;;5000087;28;20018;-71
2021/06/04 08:40:43;;;;;;;16.83;9.80;;;;;;;;;;5005129;28;20460;-71
2021/06/04 08:43:26;;;;;;;15.43;10.65;;;;;;;;;;4995789;28;20590;-70
2021/06/04 08:45:53;;;;;;;14.93;10.30;;;;;;;;;;5001844;28;20106;-71
2021/06/04 08:48:32;;;;;;;17.08;10.00;;;;;;;;;;4999749;28;20037;-70
2021/06/04 08:51:17;;;;;;;12.00;9.68;;;;;;;;;;5003732;28;20033;-69
2021/06/04 08:53:49;;;;;;;15.77;10.07;;;;;;;;;;5008279;28;20025;-70
2021/06/04 08:56:17;;;;;;;15.30;9.02;;;;;;;;;;5002613;28;20033;-70
2021/06/04 08:58:56;;;;;;;14.07;9.48;;;;;;;;;;5001658;28;20431;-69
2021/06/04 09:01:35;;;;;;;13.05;8.23;;;;;;;;;;4993666;28;20456;-69
2021/06/04 09:04:23;;;;;;;17.52;8.43;;;;;;;;;;4997879;28;20468;-70
2021/06/04 09:07:01;;;;;;;15.85;10.00;;;;;;;;;;5007123;28;20014;-67
2021/06/04 09:09:33;;;;;;;15.80;8.93;;;;;;;;;;5000657;28;20476;-68
2021/06/04 09:12:00;;;;;;;12.82;8.23;;;;;;;;;;4999930;28;20022;-69
2021/06/04 09:14:27;;;;;;;12.45;8.07;;;;;;;;;;4996226;28;20050;-70
2021/06/04 09:17:06;;;;;;;10.90;7.35;;;;;;;;;;4996208;28;20105;-69
2021/06/04 09:19:42;;;;;;;11.77;8.68;;;;;;;;;;5014518;28;20105;-69
2021/06/04 09:22:08;;;;;;;10.93;7.07;;;;;;;;;;5011220;28;20072;-68
2021/06/04 09:24:34;;;;;;;12.90;6.65;;;;;;;;;;5008420;28;20030;-68
2021/06/04 09:27:00;;;;;;;12.70;6.70;;;;;;;;;;5009881;28;20018;-68
2021/06/04 09:29:28;;;;;;;13.13;7.18;;;;;;;;;;5009280;28;20105;-68
2021/06/04 09:32:17;;;;;;;14.88;9.38;;;;;;;;;;5003385;28;20025;-68
2021/06/04 09:34:43;;;;;;;14.38;8.27;;;;;;;;;;5009794;28;20042;-68
2021/06/04 09:37:14;;;;;;;12.15;7.80;;;;;;;;;;5011417;28;20022;-68
2021/06/04 09:39:59;;;;;;;14.30;9.63;;;;;;;;;;5011633;28;20080;-67
2021/06/04 09:42:27;;;;;;;13.68;8.30;;;;;;;;;;5004300;28;20030;-68
2021/06/04 09:44:55;;;;;;;13.90;8.88;;;;;;;;;;5007900;28;20029;-68
2021/06/04 09:47:30;;;;;;;17.40;8.77;;;;;;;;;;5009185;28;20026;-67
2021/06/04 09:49:59;;;;;;;17.02;8.98;;;;;;;;;;5009238;28;20033;-68
2021/06/04 09:52:25;;;;;;;;;;;;;;;;;;5003649;28;20085;-68
2021/06/04 09:55:06;;;;;;;13.43;8.23;;;;;;;;;;4997067;28;20345;-68
2021/06/04 09:57:32;;;;;;;14.95;8.32;;;;;;;;;;4995430;28;20022;-68
2021/06/04 10:00:19;;;;;;;10.27;7.05;;;;;;;;;;4997944;28;20033;-68
2021/06/04 10:02:45;;;;;;;12.43;8.15;;;;;;;;;;4995388;28;20050;-68
2021/06/04 10:05:11;;;;;;;15.85;7.72;;;;;;;;;;4995643;28;20021;-68
2021/06/04 10:07:37;;;;;;;11.88;8.07;;;;;;;;;;4997307;28;20026;-68
2021/06/04 10:10:11;;;;;;;12.75;7.60;;;;;;;;;;4997381;28;20030;-68
2021/06/04 10:12:46;;;;;;;11.88;7.30;;;;;;;;;;4997856;28;20041;-68
2021/06/04 10:15:21;;;;;;;11.15;7.55;;;;;;;;;;4996753;28;20057;-68
2021/06/04 10:20:46;;;;;;;12.70;6.80;;;;;;;;;;5009512;28;20042;-68
2021/06/04 10:23:18;;;;;;;11.38;7.43;;;;;;;;;;5013762;28;20017;-68
2021/06/04 10:25:50;;;;;;;11.40;6.43;;;;;;;;;;4996000;28;20483;-68
2021/06/04 10:28:27;;;;;;;14.52;7.15;;;;;;;;;;4994911;28;20034;-68
2021/06/04 10:30:54;;;;;;;13.07;7.18;;;;;;;;;;5013013;28;20025;-68
2021/06/04 10:33:26;;;;;;;12.25;7.80;;;;;;;;;;4993880;28;20436;-67
2021/06/04 10:35:56;;;;;;;14.73;7.85;;;;;;;;;;4994680;28;20038;-68
2021/06/04 10:38:30;;;;;;;13.43;7.72;;;;;;;;;;4994094;28;20030;-67
2021/06/04 10:41:01;;;;;;;17.02;8.27;;;;;;;;;;4994759;28;20248;-67
2021/06/04 10:43:43;;;;;;;11.55;7.30;;;;;;;;;;4994535;28;20472;-67
2021/06/04 10:46:13;;;;;;;11.15;6.72;;;;;;;;;;4991997;28;20035;-68
2021/06/04 10:48:55;;;;;;;16.05;7.75;;;;;;;;;;4992532;28;20018;-67
2021/06/04 10:51:35;;;;;;;15.07;7.78;;;;;;;;;;4994547;28;20037;-67
2021/06/04 10:54:20;;;;;;;17.55;8.02;;;;;;;;;;4994770;28;20073;-68
2021/06/04 10:57:07;;;;;;;15.77;9.00;;;;;;;;;;4993093;28;20412;-68
2021/06/04 10:59:36;;;;;;;13.05;8.32;;;;;;;;;;4991833;28;20294;-68
2021/06/04 11:02:14;;;;;;;17.30;9.32;;;;;;;;;;4996004;28;20025;-67
2021/06/04 11:04:54;;;;;;;11.65;8.90;;;;;;;;;;4994643;28;20023;-68
2021/06/04 11:07:40;;;;;;;15.88;8.93;;;;;;;;;;4993143;28;20029;-68
2021/06/04 11:10:06;;;;;;;13.95;8.63;;;;;;;;;;4992594;28;20038;-68
2021/06/04 11:12:35;;;;;;;13.57;9.65;;;;;;;;;;4992484;28;20117;-68
2021/06/04 11:15:20;;;;;;;14.25;8.98;;;;;;;;;;4998893;28;20034;-68
2021/06/04 11:18:08;;;;;;;14.80;8.85;;;;;;;;;;4995423;28;20050;-67
2021/06/04 11:20:41;;;;;;;15.65;9.50;;;;;;;;;;4993764;28;20022;-68
2021/06/04 11:23:12;;;;;;;13.68;9.45;;;;;;;;;;4993915;28;20091;-67
2021/06/04 11:25:42;;;;;;;10.77;8.13;;;;;;;;;;4991784;28;20503;-67
2021/06/04 11:28:08;;;;;;;13.48;8.80;;;;;;;;;;4994123;28;20037;-68
2021/06/04 11:30:34;;;;;;;13.23;8.27;;;;;;;;;;5008684;28;20022;-68
2021/06/04 11:33:21;;;;;;;13.25;9.18;;;;;;;;;;4993110;28;20392;-68
2021/06/04 11:35:50;;;;;;;16.25;9.80;;;;;;;;;;4992910;28;20030;-68
2021/06/04 11:38:34;;;;;;;11.63;9.05;;;;;;;;;;4992357;28;20038;-67
2021/06/04 11:41:07;;;;;;;12.73;8.60;;;;;;;;;;4992450;28;20396;-67
2021/06/04 11:43:34;;;;;;;14.70;9.55;;;;;;;;;;4999938;28;20388;-67
2021/06/04 11:46:18;;;;;;;15.95;9.65;;;;;;;;;;4994790;28;20037;-69
2021/06/04 11:48:58;;;;;;;15.57;8.82;;;;;;;;;;4997770;28;20037;-69
2021/06/04 11:51:28;;;;;;;13.70;8.90;;;;;;;;;;5004185;28;20034;-69
2021/06/04 11:53:54;;;;;;;15.10;9.02;;;;;;;;;;5002508;28;20046;-69
2021/06/04 11:56:38;;;;;;;15.55;10.05;;;;;;;;;;4998512;28;20042;-69
2021/06/04 11:59:05;;;;;;;14.52;8.50;;;;;;;;;;4998351;28;20022;-69
2021/06/04 12:01:31;;;;;;;11.10;9.02;;;;;;;;;;4995953;28;20038;-69
2021/06/04 12:04:00;;;;;;;17.10;9.13;;;;;;;;;;4992184;28;20026;-69
2021/06/04 12:06:27;;;;;;;12.27;7.93;;;;;;;;;;4994642;28;20103;-69
2021/06/04 12:08:53;;;;;;;13.82;8.55;;;;;;;;;;4993052;28;20023;-69
2021/06/04 12:11:19;;;;;;;13.73;8.13;;;;;;;;;;4995135;28;20029;-69
2021/06/04 12:13:47;;;;;;;15.40;7.68;;;;;;;;;;4994418;28;20022;-69
2021/06/04 12:16:22;;;;;;;16.65;9.65;;;;;;;;;;4992213;28;20484;-68
2021/06/04 12:19:00;;;;;;;14.55;9.43;;;;;;;;;;4994635;28;20441;-69
2021/06/04 12:21:38;;;;;;;16.25;11.35;;;;;;;;;;4993533;28;20019;-68
2021/06/04 12:24:05;;;;;;;16.20;9.93;;;;;;;;;;5006440;28;20079;-68
2021/06/04 12:26:42;;;;;;;18.17;10.68;;;;;;;;;;5003191;28;20027;-67
2021/06/04 12:29:24;;;;;;;18.70;13.10;;;;;;;;;;5007742;28;20454;-67
2021/06/04 12:31:53;;;;;;;15.65;11.40;;;;;;;;;;5009526;28;20088;-67
2021/06/04 12:37:12;;;;;;;18.77;12.77;;;;;;;;;;5009995;28;20029;-67
2021/06/04 12:39:43;;;;;;;19.70;10.80;;;;;;;;;;5017907;28;20038;-68
2021/06/04 12:42:24;;;;;;;18.88;13.00;;;;;;;;;;5021359;28;20049;-67
2021/06/04 12:44:57;;;;;;;16.45;11.55;;;;;;;;;;5010793;28;20037;-67
2021/06/04 12:47:26;;;;;;;19.10;12.82;;;;;;;;;;5024055;28;20037;-67
2021/06/04 12:49:51;;;;;;;;;;;;;;;;;;5009016;28;20029;-67
2021/06/04 12:52:20;;;;;;;18.27;12.07;;;;;;;;;;5009944;28;19905;-67
2021/06/04 12:54:46;;;;;;;20.90;12.50;;;;;;;;;;5009989;28;20514;-67
2021/06/04 12:57:23;;;;;;;23.67;13.85;;;;;;;;;;5009803;28;20029;-67
2021/06/04 12:59:51;;;;;;;20.85;14.40;;;;;;;;;;5005470;28;20022;-67
2021/06/04 13:02:18;;;;;;;21.55;14.52;;;;;;;;;;5007738;28;20030;-67
2021/06/04 13:04:46;;;;;;;23.52;15.77;;;;;;;;;;5009048;28;20018;-67
2021/06/04 13:07:16;;;;;;;19.67;13.53;;;;;;;;;;5010379;28;20494;-67
2021/06/04 13:09:43;;;;;;;21.08;11.82;;;;;;;;;;5009763;28;20289;-67
2021/06/04 13:12:18;;;;;;;25.02;12.80;;;;;;;;;;5019566;28;20029;-67
2021/06/04 13:14:46;;;;;;;25.05;14.02;;;;;;;;;;5009862;28;20395;-66
2021/06/04 13:17:15;;;;;;;21.35;14.63;;;;;;;;;;4998727;28;20030;-67
2021/06/04 13:19:41;;;;;;;23.58;14.65;;;;;;;;;;4995910;28;20022;-67
2021/06/04 13:22:22;;;;;;;21.65;14.60;;;;;;;;;;4998235;28;20048;-69
2021/06/04 13:24:51;;;;;;;21.50;14.63;;;;;;;;;;5002782;28;20026;-69
2021/06/04 13:27:19;;;;;;;17.95;13.68;;;;;;;;;;4997622;28;20033;-68
2021/06/04 13:29:52;;;;;;;19.73;13.65;;;;;;;;;;4995590;28;20563;-67
2021/06/04 13:32:20;;;;;;;19.25;13.43;;;;;;;;;;5009154;28;20411;-66
2021/06/04 13:34:50;;;;;;;19.10;13.10;;;;;;;;;;4994299;28;20092;-67
2021/06/04 13:37:27;;;;;;;17.48;11.32;;;;;;;;;;4989969;28;20106;-67
2021/06/04 13:39:54;;;;;;;16.92;11.35;;;;;;;;;;4991579;28;20026;-67
2021/06/04 13:42:42;;;;;;;23.50;12.55;;;;;;;;;;4998343;28;20034;-70
2021/06/04 13:45:08;;;;;;;19.63;12.30;;;;;;;;;;4995448;28;20026;-70
2021/06/04 13:47:47;;;;;;;17.35;11.23;;;;;;;;;;5012366;28;20492;-70
2021/06/04 13:50:36;;;;;;;11.88;9.32;;;;;;;;;;4995605;28;20089;-69
2021/06/04 13:53:02;;;;;;;;;;;;;;;;;;4997680;28;20034;-69
2021/06/04 13:55:29;;;;;;;14.15;9.32;;;;;;;;;;4999904;28;21725;-70
2021/06/04 13:58:13;;;;;;;13.90;8.10;;;;;;;;;;4993753;28;20583;-70
2021/06/04 14:00:39;;;;;;;13.63;8.85;;;;;;;;;;4994062;28;20365;-70
2021/06/04 14:03:17;;;;;;;15.25;9.75;;;;;;;;;;5012539;28;20033;-69
2021/06/04 14:05:54;;;;;;;13.35;7.95;;;;;;;;;;4992362;28;20030;-69
2021/06/04 14:08:22;;;;;;;12.90;7.38;;;;;;;;;;5011516;28;20045;-69
2021/06/04 14:10:48;;;;;;;12.38;6.85;;;;;;;;;;4993419;28;20611;-69
2021/06/04 14:13:16;;;;;;;13.82;10.27;;;;;;;;;;4999750;28;20102;-69
2021/06/04 14:16:05;;;;;;;16.35;9.32;;;;;;;;;;4999996;28;20446;-69
2021/06/04 14:18:52;;;;;;;15.95;10.07;;;;;;;;;;5004650;28;20105;-69
2021/06/04 14:21:30;;;;;;;16.73;9.48;;;;;;;;;;4993746;28;20365;-69
2021/06/04 14:23:59;;;;;;;15.27;9.40;;;;;;;;;;4999523;28;20022;-68
2021/06/04 14:26:28;;;;;;;14.02;8.52;;;;;;;;;;4998844;28;20037;-68
2021/06/04 14:28:54;;;;;;;;;;;;;;;;;;5005133;28;20044;-68
2021/06/04 14:31:20;;;;;;;13.23;8.90;;;;;;;;;;5007905;28;20335;-68
2021/06/04 14:33:52;;;;;;;12.63;8.35;;;;;;;;;;5006921;28;20112;-68
2021/06/04 14:36:23;;;;;;;14.25;8.23;;;;;;;;;;5023997;28;20513;-68
2021/06/04 14:38:51;;;;;;;15.13;8.10;;;;;;;;;;5025820;28;20025;-68
2021/06/04 14:41:23;;;;;;;13.15;6.78;;;;;;;;;;4999355;28;20045;-68
2021/06/04 14:43:51;;;;;;;14.02;8.65;;;;;;;;;;5010872;28;20053;-67
2021/06/04 14:46:18;;;;;;;16.08;8.88;;;;;;;;;;5011908;28;20026;-68